createdAt,value
2023-03-05T00:01:54.119Z,4.63
2023-03-05T00:05:58.259Z,4.13
2023-03-05T00:10:00.881Z,6.10
2023-03-05T00:14:04.113Z,6.13
2023-03-05T00:18:05.496Z,4.60
2023-03-05T00:22:07.769Z,4.30
2023-03-05T00:26:09.915Z,4.90
2023-03-05T00:30:11.997Z,3.93
2023-03-05T00:34:15.892Z,5.43
2023-03-05T00:38:17.267Z,4.63
2023-03-05T00:42:18.616Z,5.40
2023-03-05T00:46:20.061Z,3.70
2023-03-05T00:50:21.435Z,3.57
2023-03-05T00:54:22.859Z,3.67
2023-03-05T00:58:24.267Z,3.70
2023-03-05T01:02:26.112Z,3.97
2023-03-05T01:06:29.331Z,3.10
2023-03-05T01:10:30.708Z,3.40
2023-03-05T01:14:32.380Z,3.70
2023-03-05T01:18:34.422Z,4.37
2023-03-05T01:22:35.795Z,3.73
2023-03-05T01:26:37.212Z,4.00
2023-03-05T01:30:38.547Z,6.57
2023-03-05T01:34:41.844Z,3.97
2023-03-05T01:38:44.248Z,4.50
2023-03-05T01:42:55.451Z,5.30
2023-03-05T01:46:57.029Z,3.90
2023-03-05T01:50:58.498Z,3.60
2023-03-05T01:55:03.145Z,3.47
2023-03-05T01:59:04.761Z,3.13
2023-03-05T02:03:09.782Z,3.70
2023-03-05T02:07:13.632Z,4.27
2023-03-05T02:11:15.113Z,4.33
2023-03-05T02:15:17.793Z,3.93
2023-03-05T02:19:19.238Z,3.50
2023-03-05T02:23:22.525Z,3.50
2023-03-05T02:27:34.784Z,4.60
2023-03-05T02:31:38.866Z,3.73
2023-03-05T02:35:42.575Z,4.70
2023-03-05T02:39:43.920Z,3.17
2023-03-05T02:43:45.237Z,4.13
2023-03-05T02:47:46.696Z,4.27
2023-03-05T02:51:48.065Z,4.90
2023-03-05T02:55:49.829Z,4.13
2023-03-05T02:59:51.350Z,2.80
2023-03-05T03:03:52.714Z,4.80
2023-03-05T03:07:54.162Z,4.00
2023-03-05T03:11:55.646Z,5.03
2023-03-05T03:16:09.636Z,4.73
2023-03-05T03:20:16.630Z,3.83
2023-03-05T03:24:17.979Z,3.87
2023-03-05T03:28:19.336Z,3.93
2023-03-05T03:32:20.820Z,4.87
2023-03-05T03:36:22.173Z,3.27
2023-03-05T03:40:23.472Z,3.67
2023-03-05T03:44:24.813Z,2.93
2023-03-05T03:48:26.244Z,3.30
2023-03-05T03:52:27.634Z,3.93
2023-03-05T03:56:28.945Z,4.40
2023-03-05T04:00:30.305Z,3.20
2023-03-05T04:04:31.702Z,4.87
2023-03-05T04:08:33.161Z,3.37
2023-03-05T04:12:34.554Z,3.47
2023-03-05T04:16:35.856Z,3.03
2023-03-05T04:20:37.253Z,3.67
2023-03-05T04:24:38.744Z,3.10
2023-03-05T04:28:40.085Z,3.50
2023-03-05T04:32:41.778Z,3.20
2023-03-05T04:36:43.143Z,3.50
2023-03-05T04:40:45.433Z,3.20
2023-03-05T04:44:48.931Z,2.87
2023-03-05T04:48:50.236Z,3.13
2023-03-05T04:52:51.730Z,3.10
2023-03-05T04:56:53.055Z,3.07
2023-03-05T05:00:54.387Z,3.50
2023-03-05T05:04:55.797Z,3.27
2023-03-05T05:08:57.182Z,3.60
2023-03-05T05:12:58.577Z,3.33
2023-03-05T05:17:00.355Z,3.20
2023-03-05T05:21:01.740Z,2.97
2023-03-05T05:25:03.449Z,3.77
2023-03-05T05:29:04.850Z,3.30
2023-03-05T05:33:06.234Z,3.40
2023-03-05T05:37:07.573Z,3.80
2023-03-05T05:41:14.690Z,3.93
2023-03-05T05:45:16.191Z,3.60
2023-03-05T05:49:17.633Z,2.90
2023-03-05T05:53:18.922Z,2.73
2023-03-05T05:57:20.299Z,3.63
2023-03-05T06:01:26.400Z,3.40
2023-03-05T06:05:27.700Z,3.40
2023-03-05T06:09:29.614Z,3.27
2023-03-05T06:13:30.967Z,3.13
2023-03-05T06:17:32.336Z,2.90
2023-03-05T06:21:33.943Z,3.13
2023-03-05T06:25:35.229Z,3.73
2023-03-05T06:29:36.575Z,3.70
2023-03-05T06:33:39.089Z,3.17
2023-03-05T06:37:40.371Z,3.60
2023-03-05T06:41:41.687Z,3.67
2023-03-05T06:45:43.147Z,3.70
2023-03-05T06:49:44.490Z,3.17
2023-03-05T06:53:48.307Z,4.30
2023-03-05T06:57:50.681Z,3.80
2023-03-05T07:01:51.993Z,5.20
2023-03-05T07:05:53.302Z,4.97
2023-03-05T07:09:54.739Z,4.50
2023-03-05T07:13:56.037Z,4.40
2023-03-05T07:17:57.372Z,4.43
2023-03-05T07:21:58.638Z,4.23
2023-03-05T07:26:04.097Z,4.30
2023-03-05T07:30:06.214Z,4.03
2023-03-05T07:34:10.237Z,4.83
2023-03-05T07:38:11.564Z,3.57
2023-03-05T07:42:12.971Z,4.53
2023-03-05T07:46:17.505Z,3.70
2023-03-05T07:50:18.928Z,3.83
2023-03-05T07:54:20.205Z,3.67
2023-03-05T07:58:21.693Z,3.30
2023-03-05T08:02:23.243Z,3.87
2023-03-05T08:06:24.639Z,4.57
2023-03-05T08:10:26.113Z,3.97
2023-03-05T08:14:27.603Z,3.60
2023-03-05T08:18:28.889Z,4.43
2023-03-05T08:22:30.222Z,3.60
2023-03-05T08:26:33.829Z,3.77
2023-03-05T08:30:35.199Z,3.90
2023-03-05T08:34:36.533Z,3.80
2023-03-05T08:38:37.849Z,4.13
2023-03-05T08:42:39.183Z,4.30
2023-03-05T08:46:40.570Z,4.47
2023-03-05T08:50:42.080Z,3.93
2023-03-05T08:54:43.389Z,4.10
2023-03-05T08:58:46.312Z,3.93
2023-03-05T09:02:48.133Z,3.93
2023-03-05T09:06:49.431Z,4.43
2023-03-05T09:10:50.706Z,4.10
2023-03-05T09:14:54.759Z,4.67
2023-03-05T09:18:56.317Z,4.47
2023-03-05T09:22:57.629Z,4.50
2023-03-05T09:27:00.274Z,4.87
2023-03-05T09:31:03.884Z,4.20
2023-03-05T09:35:06.182Z,5.00
2023-03-05T09:39:07.732Z,4.33
2023-03-05T09:43:25.736Z,4.40
2023-03-05T09:47:51.639Z,4.20
2023-03-05T09:52:01.673Z,4.80
2023-03-05T09:56:09.826Z,4.30
2023-03-05T10:00:35.476Z,5.27
2023-03-05T10:04:57.724Z,5.17
2023-03-05T10:09:16.907Z,5.93
2023-03-05T10:13:25.205Z,5.40
2023-03-05T10:17:46.036Z,5.60
2023-03-05T10:22:30.716Z,5.17
2023-03-05T10:26:45.686Z,6.27
2023-03-05T10:30:58.700Z,6.50
2023-03-05T10:35:13.559Z,6.57
2023-03-05T10:39:42.048Z,7.67
2023-03-05T10:44:00.739Z,7.80
2023-03-05T10:48:12.716Z,9.00
2023-03-05T10:52:18.838Z,10.50
2023-03-05T10:56:23.277Z,9.87
2023-03-05T11:00:27.789Z,9.90
2023-03-05T11:04:32.148Z,11.10
2023-03-05T11:08:35.790Z,10.57
2023-03-05T11:12:38.883Z,10.07
2023-03-05T11:16:48.688Z,9.57
2023-03-05T11:20:50.648Z,8.50
2023-03-05T11:25:10.659Z,8.90
2023-03-05T11:29:18.783Z,8.97
2023-03-05T11:33:23.410Z,8.60
2023-03-05T11:37:30.698Z,8.50
2023-03-05T11:41:59.550Z,8.33
2023-03-05T11:46:04.743Z,7.93
2023-03-05T11:50:26.791Z,8.13
2023-03-05T11:54:40.203Z,8.80
2023-03-05T11:58:49.826Z,9.83
2023-03-05T12:02:54.421Z,9.87
2023-03-05T12:07:00.359Z,8.90
2023-03-05T12:11:12.614Z,8.03
2023-03-05T12:15:38.693Z,9.00
2023-03-05T12:20:01.732Z,8.00
2023-03-05T12:24:23.020Z,7.30
2023-03-05T12:28:30.549Z,6.80
2023-03-05T12:32:31.821Z,6.53
2023-03-05T12:36:35.339Z,6.30
2023-03-05T12:40:36.693Z,5.57
2023-03-05T12:44:39.649Z,5.90
2023-03-05T12:48:43.691Z,5.80
2023-03-05T12:52:45.919Z,6.07
2023-03-05T12:56:47.755Z,5.47
2023-03-05T13:01:04.476Z,5.93
2023-03-05T13:05:26.513Z,5.47
2023-03-05T13:09:33.612Z,6.17
2023-03-05T13:13:43.113Z,5.20
2023-03-05T13:18:03.239Z,5.63
2023-03-05T13:22:11.739Z,6.00
2023-03-05T13:26:19.112Z,6.00
2023-03-05T13:30:23.270Z,6.13
2023-03-05T13:34:37.415Z,7.53
2023-03-05T13:38:46.932Z,7.73
2023-03-05T13:42:48.902Z,7.37
2023-03-05T13:46:50.274Z,7.40
2023-03-05T13:50:57.542Z,7.27
2023-03-05T13:55:00.223Z,7.27
2023-03-05T13:59:01.586Z,7.90
2023-03-05T14:03:23.622Z,8.27
2023-03-05T14:07:37.485Z,8.10
2023-03-05T14:11:38.819Z,9.37
2023-03-05T14:15:40.502Z,8.47
2023-03-05T14:19:41.971Z,7.13
2023-03-05T14:23:46.395Z,7.60
2023-03-05T14:27:48.052Z,6.97
2023-03-05T14:32:00.202Z,7.23
2023-03-05T14:36:02.955Z,6.93
2023-03-05T14:40:07.975Z,7.17
2023-03-05T14:44:17.352Z,7.23
2023-03-05T14:48:18.994Z,7.07
2023-03-05T14:52:23.796Z,6.33
2023-03-05T14:56:28.800Z,7.63
2023-03-05T15:00:30.677Z,6.87
2023-03-05T15:04:32.050Z,6.73
2023-03-05T15:08:33.477Z,7.23
2023-03-05T15:12:34.981Z,7.63
2023-03-05T15:16:36.425Z,7.17
2023-03-05T15:20:39.753Z,7.87
2023-03-05T15:24:41.639Z,7.93
2023-03-05T15:28:43.506Z,7.73
2023-03-05T15:32:44.795Z,8.00
2023-03-05T15:36:46.199Z,8.60
2023-03-05T15:40:47.916Z,8.50
2023-03-05T15:44:49.382Z,8.93
2023-03-05T15:48:50.772Z,8.73
2023-03-05T15:52:52.296Z,9.03
2023-03-05T15:56:53.840Z,9.57
2023-03-05T16:00:55.154Z,9.47
2023-03-05T16:04:56.630Z,9.87
2023-03-05T16:09:03.769Z,9.80
2023-03-05T16:13:12.104Z,10.10
2023-03-05T16:17:15.092Z,10.47
2023-03-05T16:21:16.643Z,10.67
2023-03-05T16:25:18.147Z,10.83
2023-03-05T16:29:19.548Z,10.90
2023-03-05T16:33:20.883Z,12.13
2023-03-05T16:37:23.883Z,12.90
2023-03-05T16:41:26.587Z,12.57
2023-03-05T16:45:27.929Z,12.30
2023-03-05T16:49:29.886Z,13.47
2023-03-05T16:53:31.539Z,12.90
2023-03-05T16:57:32.807Z,12.10
2023-03-05T17:01:34.373Z,14.17
2023-03-05T17:05:36.502Z,12.43
2023-03-05T17:09:38.582Z,12.07
2023-03-05T17:13:40.874Z,12.17
2023-03-05T17:17:42.237Z,10.47
2023-03-05T17:21:43.680Z,10.87
2023-03-05T17:25:45.007Z,11.53
2023-03-05T17:29:46.531Z,11.73
2023-03-05T17:33:47.818Z,10.97
2023-03-05T17:37:49.986Z,12.03
2023-03-05T17:41:51.393Z,10.80
2023-03-05T17:45:52.772Z,9.33
2023-03-05T17:49:54.189Z,9.60
2023-03-05T17:53:55.707Z,13.47
2023-03-05T17:57:57.048Z,13.23
2023-03-05T18:01:58.510Z,13.33
2023-03-05T18:05:59.886Z,12.50
2023-03-05T18:10:01.334Z,12.80
2023-03-05T18:14:02.905Z,12.27
2023-03-05T18:18:04.277Z,11.67
2023-03-05T18:22:05.577Z,12.80
2023-03-05T18:26:06.902Z,12.13
2023-03-05T18:30:09.073Z,13.93
2023-03-05T18:34:10.393Z,11.80
2023-03-05T18:38:11.910Z,13.67
2023-03-05T18:42:13.858Z,11.93
2023-03-05T18:46:15.280Z,13.67
2023-03-05T18:50:18.473Z,12.07
2023-03-05T18:54:19.814Z,12.27
2023-03-05T18:58:22.098Z,11.00
2023-03-05T19:02:24.386Z,12.20
2023-03-05T19:06:25.699Z,12.30
2023-03-05T19:10:27.609Z,11.47
2023-03-05T19:14:28.989Z,11.03
2023-03-05T19:18:57.018Z,13.17
2023-03-05T19:22:58.287Z,11.73
2023-03-05T19:27:01.166Z,11.10
2023-03-05T19:31:02.601Z,10.73
2023-03-05T19:35:04.292Z,10.50
2023-03-05T19:39:07.246Z,10.77
2023-03-05T19:43:08.696Z,11.50
2023-03-05T19:47:10.024Z,10.47
2023-03-05T19:51:13.966Z,11.30
2023-03-05T19:55:15.402Z,10.63
2023-03-05T19:59:18.588Z,10.30
2023-03-05T20:03:19.916Z,9.60
2023-03-05T20:07:21.358Z,10.40
2023-03-05T20:11:23.581Z,10.37
2023-03-05T20:15:29.127Z,12.47
2023-03-05T20:19:30.548Z,11.53
2023-03-05T20:23:31.998Z,11.30
2023-03-05T20:27:33.717Z,13.50
2023-03-05T20:31:37.004Z,13.03
2023-03-05T20:35:38.570Z,14.57
2023-03-05T20:39:39.933Z,14.00
2023-03-05T20:43:44.753Z,13.17
2023-03-05T20:47:46.453Z,13.80
2023-03-05T20:51:49.800Z,13.60
2023-03-05T20:55:51.367Z,13.90
2023-03-05T20:59:52.655Z,14.17
2023-03-05T21:03:57.134Z,15.97
2023-03-05T21:08:00.664Z,14.57
2023-03-05T21:12:02.168Z,15.57
2023-03-05T21:16:14.076Z,16.07
2023-03-05T21:20:20.139Z,17.13
2023-03-05T21:25:00.771Z,15.80
2023-03-05T21:29:02.145Z,17.13
2023-03-05T21:33:09.609Z,16.10
2023-03-05T21:37:11.850Z,16.83
2023-03-05T21:41:13.473Z,16.63
2023-03-05T21:45:18.357Z,17.83
2023-03-05T21:49:19.630Z,18.50
2023-03-05T21:53:22.317Z,16.90
2023-03-05T21:57:24.219Z,17.57
2023-03-05T22:01:25.577Z,16.63
2023-03-05T22:05:26.924Z,17.63
2023-03-05T22:09:28.378Z,16.80
2023-03-05T22:13:29.731Z,18.40
2023-03-05T22:17:31.061Z,19.03
2023-03-05T22:21:32.589Z,19.97
2023-03-05T22:25:34.750Z,18.13
2023-03-05T22:29:36.094Z,17.97
2023-03-05T22:33:37.779Z,18.70
2023-03-05T22:37:41.140Z,16.80
2023-03-05T22:41:42.428Z,15.50
2023-03-05T22:45:43.945Z,15.27
2023-03-05T22:49:46.916Z,15.27
2023-03-05T22:53:48.479Z,14.13
2023-03-05T22:57:49.910Z,14.20
2023-03-05T23:01:51.338Z,13.07
2023-03-05T23:05:52.867Z,13.40
2023-03-05T23:09:57.485Z,12.30
2023-03-05T23:13:58.834Z,13.20
2023-03-05T23:18:01.062Z,12.90
2023-03-05T23:22:03.479Z,12.40
2023-03-05T23:26:04.984Z,13.63
2023-03-05T23:30:17.121Z,12.50
2023-03-05T23:34:18.472Z,12.60
2023-03-05T23:38:20.645Z,13.53
2023-03-05T23:42:22.069Z,14.37
2023-03-05T23:46:23.430Z,14.53
2023-03-05T23:50:31.218Z,12.13
2023-03-05T23:54:32.538Z,11.90
2023-03-05T23:58:35.556Z,10.30
